Whitelaw, Wisconsin
Current Conditions -  °F | °C
As of 10:28 PM on Saturday 22 Nov 2014 (Local Time) from KMTW Reporting Station
Haze Haze  
Wind Chill: 39°   Ceiling: 700
Heat Index: 43°   Visibility: 4mi
Dew Point: 43°   Wind: 6mph
Humidity: 100%   Direction: 190°S
Pressure: 29.78"   Gusts: NA
Location:  44.14°N, 87.82°W
Report Text: KMTW 230428Z AUTO 19005KT 4SM BR OVC007 06/06 A2978 RMK AO2 CIG 005V010
Loading
Personal Weather Stations






























Interactive Weather Map New forecast layout! Learn more

10-Day Weather Forecast

Advertisements
Track Severe Weather on mobile